Terminal Aerodrome Forecast
Issued by NWS

Home | Current Version | Previous Version | Graphics & Text | Print | Product List | Glossary Off
Versions: 1 2 3 4 5 6 7 8 9 10 11 12 13 14 15 16 17 18 19 20 21 22 23 24 25

000
FTUS43 KBIS 261300 AAA
TAFMOT
TAF AMD
KMOT 261324Z 2613/2712 35005KT 4SM -SN SCT040 BKN070
     FM261500 01008KT P6SM BKN040 OVC070
     FM262100 04007KT P6SM SCT035
     FM270300 11005KT P6SM SCT250
     FM270800 17006KT P6SM SCT025=

USA.gov is the U.S. government's official web portal to all federal, state and local government web resources and services.